sensor_id;sensor_type;location;lat;lon;timestamp;P1;durP1;ratioP1;P2;durP2;ratioP2
11731;SDS011;5922;53.734;10.258;2022-07-29T00:02:05;2.80;;;1.80;;
11731;SDS011;5922;53.734;10.258;2022-07-29T00:04:35;2.90;;;1.47;;
11731;SDS011;5922;53.734;10.258;2022-07-29T00:07:02;4.77;;;2.00;;
11731;SDS011;5922;53.734;10.258;2022-07-29T00:09:29;4.90;;;2.07;;
11731;SDS011;5922;53.734;10.258;2022-07-29T00:11:57;3.40;;;1.80;;
11731;SDS011;5922;53.734;10.258;2022-07-29T00:14:25;5.57;;;2.07;;
11731;SDS011;5922;53.734;10.258;2022-07-29T00:16:52;3.40;;;1.90;;
11731;SDS011;5922;53.734;10.258;2022-07-29T00:19:19;3.13;;;1.47;;
11731;SDS011;5922;53.734;10.258;2022-07-29T00:21:48;3.57;;;1.90;;
11731;SDS011;5922;53.734;10.258;2022-07-29T00:24:15;3.70;;;1.80;;
11731;SDS011;5922;53.734;10.258;2022-07-29T00:26:42;8.37;;;1.93;;
11731;SDS011;5922;53.734;10.258;2022-07-29T00:29:10;3.80;;;2.00;;
11731;SDS011;5922;53.734;10.258;2022-07-29T00:31:37;4.27;;;1.73;;
11731;SDS011;5922;53.734;10.258;2022-07-29T00:34:04;4.03;;;1.90;;
11731;SDS011;5922;53.734;10.258;2022-07-29T00:36:53;5.27;;;1.90;;
11731;SDS011;5922;53.734;10.258;2022-07-29T00:39:19;4.87;;;1.80;;
11731;SDS011;5922;53.734;10.258;2022-07-29T00:41:46;2.77;;;1.90;;
11731;SDS011;5922;53.734;10.258;2022-07-29T00:44:13;3.90;;;1.77;;
11731;SDS011;5922;53.734;10.258;2022-07-29T00:46:41;6.70;;;2.43;;
11731;SDS011;5922;53.734;10.258;2022-07-29T00:49:08;4.53;;;2.07;;
11731;SDS011;5922;53.734;10.258;2022-07-29T00:51:36;4.00;;;1.83;;
11731;SDS011;5922;53.734;10.258;2022-07-29T00:54:05;6.13;;;2.40;;
11731;SDS011;5922;53.734;10.258;2022-07-29T00:56:32;2.70;;;1.70;;
11731;SDS011;5922;53.734;10.258;2022-07-29T00:59:00;2.67;;;1.60;;
11731;SDS011;5922;53.734;10.258;2022-07-29T01:01:27;5.17;;;1.90;;
11731;SDS011;5922;53.734;10.258;2022-07-29T01:03:54;4.47;;;2.00;;
11731;SDS011;5922;53.734;10.258;2022-07-29T01:06:21;8.73;;;2.07;;
11731;SDS011;5922;53.734;10.258;2022-07-29T01:08:49;2.30;;;1.60;;
11731;SDS011;5922;53.734;10.258;2022-07-29T01:11:18;3.80;;;1.83;;
11731;SDS011;5922;53.734;10.258;2022-07-29T01:13:46;2.93;;;1.80;;
11731;SDS011;5922;53.734;10.258;2022-07-29T01:16:15;4.10;;;1.97;;
11731;SDS011;5922;53.734;10.258;2022-07-29T01:18:46;5.03;;;2.07;;
11731;SDS011;5922;53.734;10.258;2022-07-29T01:21:35;4.00;;;1.87;;
11731;SDS011;5922;53.734;10.258;2022-07-29T01:24:11;4.10;;;2.07;;
11731;SDS011;5922;53.734;10.258;2022-07-29T01:26:44;6.60;;;2.40;;
11731;SDS011;5922;53.734;10.258;2022-07-29T01:29:14;3.63;;;2.20;;
11731;SDS011;5922;53.734;10.258;2022-07-29T01:31:45;3.77;;;1.80;;
11731;SDS011;5922;53.734;10.258;2022-07-29T01:34:16;5.17;;;1.77;;
11731;SDS011;5922;53.734;10.258;2022-07-29T01:36:45;4.87;;;2.40;;
11731;SDS011;5922;53.734;10.258;2022-07-29T01:39:15;4.20;;;1.90;;
11731;SDS011;5922;53.734;10.258;2022-07-29T01:41:49;5.37;;;2.10;;
11731;SDS011;5922;53.734;10.258;2022-07-29T01:44:20;3.27;;;2.03;;
11731;SDS011;5922;53.734;10.258;2022-07-29T01:46:54;4.20;;;2.50;;
11731;SDS011;5922;53.734;10.258;2022-07-29T01:49:24;3.77;;;2.40;;
11731;SDS011;5922;53.734;10.258;2022-07-29T01:51:53;5.17;;;2.17;;
11731;SDS011;5922;53.734;10.258;2022-07-29T01:54:23;6.40;;;2.63;;
11731;SDS011;5922;53.734;10.258;2022-07-29T01:56:53;5.13;;;2.20;;
11731;SDS011;5922;53.734;10.258;2022-07-29T01:59:23;4.13;;;2.60;;
11731;SDS011;5922;53.734;10.258;2022-07-29T02:01:53;6.13;;;2.53;;
11731;SDS011;5922;53.734;10.258;2022-07-29T02:04:20;6.90;;;2.67;;
11731;SDS011;5922;53.734;10.258;2022-07-29T02:06:49;5.63;;;2.30;;
11731;SDS011;5922;53.734;10.258;2022-07-29T02:09:16;5.57;;;2.77;;
11731;SDS011;5922;53.734;10.258;2022-07-29T02:11:45;5.00;;;2.60;;
11731;SDS011;5922;53.734;10.258;2022-07-29T02:14:14;4.33;;;2.87;;
11731;SDS011;5922;53.734;10.258;2022-07-29T02:16:44;4.97;;;2.73;;
11731;SDS011;5922;53.734;10.258;2022-07-29T02:19:11;6.27;;;2.70;;
11731;SDS011;5922;53.734;10.258;2022-07-29T02:21:39;5.90;;;2.80;;
11731;SDS011;5922;53.734;10.258;2022-07-29T02:24:07;4.50;;;2.57;;
11731;SDS011;5922;53.734;10.258;2022-07-29T02:26:35;4.73;;;3.00;;
11731;SDS011;5922;53.734;10.258;2022-07-29T02:29:03;7.10;;;3.00;;
11731;SDS011;5922;53.734;10.258;2022-07-29T02:31:31;6.07;;;2.70;;
11731;SDS011;5922;53.734;10.258;2022-07-29T02:34:01;5.97;;;2.97;;
11731;SDS011;5922;53.734;10.258;2022-07-29T02:36:28;3.00;;;2.70;;
11731;SDS011;5922;53.734;10.258;2022-07-29T02:38:56;4.03;;;2.90;;
11731;SDS011;5922;53.734;10.258;2022-07-29T02:41:27;9.93;;;3.50;;
11731;SDS011;5922;53.734;10.258;2022-07-29T02:43:55;3.33;;;2.70;;
11731;SDS011;5922;53.734;10.258;2022-07-29T02:46:25;5.90;;;3.03;;
11731;SDS011;5922;53.734;10.258;2022-07-29T02:48:55;4.40;;;2.90;;
11731;SDS011;5922;53.734;10.258;2022-07-29T02:51:25;5.40;;;2.97;;
11731;SDS011;5922;53.734;10.258;2022-07-29T02:53:56;7.60;;;3.00;;
11731;SDS011;5922;53.734;10.258;2022-07-29T02:56:25;6.10;;;3.00;;
11731;SDS011;5922;53.734;10.258;2022-07-29T02:58:54;4.93;;;3.23;;
11731;SDS011;5922;53.734;10.258;2022-07-29T03:01:23;4.07;;;2.80;;
11731;SDS011;5922;53.734;10.258;2022-07-29T03:03:53;5.00;;;2.73;;
11731;SDS011;5922;53.734;10.258;2022-07-29T03:06:21;6.60;;;3.10;;
11731;SDS011;5922;53.734;10.258;2022-07-29T03:08:50;5.73;;;2.70;;
11731;SDS011;5922;53.734;10.258;2022-07-29T03:11:18;6.50;;;2.70;;
11731;SDS011;5922;53.734;10.258;2022-07-29T03:13:45;5.00;;;2.90;;
11731;SDS011;5922;53.734;10.258;2022-07-29T03:16:13;4.67;;;2.57;;
11731;SDS011;5922;53.734;10.258;2022-07-29T03:18:41;4.20;;;2.67;;
11731;SDS011;5922;53.734;10.258;2022-07-29T03:21:08;3.50;;;2.70;;
11731;SDS011;5922;53.734;10.258;2022-07-29T03:23:35;5.20;;;3.03;;
11731;SDS011;5922;53.734;10.258;2022-07-29T03:26:04;6.97;;;2.67;;
11731;SDS011;5922;53.734;10.258;2022-07-29T03:28:36;10.63;;;2.93;;
11731;SDS011;5922;53.734;10.258;2022-07-29T03:31:31;5.00;;;2.73;;
11731;SDS011;5922;53.734;10.258;2022-07-29T03:34:27;6.57;;;3.10;;
11731;SDS011;5922;53.734;10.258;2022-07-29T03:37:38;4.13;;;2.83;;
11731;SDS011;5922;53.734;10.258;2022-07-29T03:40:30;6.57;;;2.83;;
11731;SDS011;5922;53.734;10.258;2022-07-29T03:52:32;4.03;;;3.00;;
11731;SDS011;5922;53.734;10.258;2022-07-29T03:55:00;5.27;;;2.97;;
11731;SDS011;5922;53.734;10.258;2022-07-29T03:57:28;4.43;;;2.80;;
11731;SDS011;5922;53.734;10.258;2022-07-29T03:59:55;4.53;;;2.93;;
11731;SDS011;5922;53.734;10.258;2022-07-29T04:02:23;7.47;;;3.00;;
11731;SDS011;5922;53.734;10.258;2022-07-29T04:04:51;4.97;;;3.20;;
11731;SDS011;5922;53.734;10.258;2022-07-29T04:07:19;6.43;;;3.10;;
11731;SDS011;5922;53.734;10.258;2022-07-29T04:09:47;6.20;;;3.30;;
11731;SDS011;5922;53.734;10.258;2022-07-29T04:12:15;5.60;;;3.00;;
11731;SDS011;5922;53.734;10.258;2022-07-29T04:14:42;4.57;;;2.83;;
11731;SDS011;5922;53.734;10.258;2022-07-29T04:17:09;3.87;;;2.97;;
11731;SDS011;5922;53.734;10.258;2022-07-29T04:19:36;4.03;;;2.77;;
11731;SDS011;5922;53.734;10.258;2022-07-29T04:31:20;4.30;;;2.93;;
11731;SDS011;5922;53.734;10.258;2022-07-29T04:34:03;5.27;;;3.00;;
11731;SDS011;5922;53.734;10.258;2022-07-29T04:39:49;4.47;;;3.10;;
11731;SDS011;5922;53.734;10.258;2022-07-29T04:42:16;5.90;;;2.87;;
11731;SDS011;5922;53.734;10.258;2022-07-29T04:44:45;8.50;;;3.67;;
11731;SDS011;5922;53.734;10.258;2022-07-29T04:47:14;5.57;;;3.00;;
11731;SDS011;5922;53.734;10.258;2022-07-29T04:49:41;5.70;;;2.90;;
11731;SDS011;5922;53.734;10.258;2022-07-29T04:52:09;4.53;;;3.20;;
11731;SDS011;5922;53.734;10.258;2022-07-29T04:54:41;5.30;;;2.77;;
11731;SDS011;5922;53.734;10.258;2022-07-29T04:57:09;6.73;;;3.30;;
11731;SDS011;5922;53.734;10.258;2022-07-29T04:59:36;5.03;;;3.00;;
11731;SDS011;5922;53.734;10.258;2022-07-29T05:02:06;7.20;;;3.13;;
11731;SDS011;5922;53.734;10.258;2022-07-29T05:04:46;5.10;;;3.30;;
11731;SDS011;5922;53.734;10.258;2022-07-29T05:07:27;6.23;;;3.10;;
11731;SDS011;5922;53.734;10.258;2022-07-29T05:10:01;6.13;;;3.30;;
11731;SDS011;5922;53.734;10.258;2022-07-29T05:12:39;8.73;;;3.03;;
11731;SDS011;5922;53.734;10.258;2022-07-29T05:15:20;4.87;;;3.10;;
11731;SDS011;5922;53.734;10.258;2022-07-29T05:18:02;6.53;;;3.43;;
11731;SDS011;5922;53.734;10.258;2022-07-29T05:20:31;8.87;;;3.30;;
11731;SDS011;5922;53.734;10.258;2022-07-29T05:23:08;6.93;;;3.27;;
11731;SDS011;5922;53.734;10.258;2022-07-29T05:25:37;4.90;;;3.07;;
11731;SDS011;5922;53.734;10.258;2022-07-29T05:28:05;7.40;;;3.30;;
11731;SDS011;5922;53.734;10.258;2022-07-29T05:30:32;5.23;;;3.00;;
11731;SDS011;5922;53.734;10.258;2022-07-29T05:33:00;10.00;;;3.37;;
11731;SDS011;5922;53.734;10.258;2022-07-29T05:35:27;9.57;;;3.00;;
11731;SDS011;5922;53.734;10.258;2022-07-29T05:37:56;5.50;;;3.40;;
11731;SDS011;5922;53.734;10.258;2022-07-29T05:40:23;9.17;;;3.00;;
11731;SDS011;5922;53.734;10.258;2022-07-29T05:42:51;5.90;;;2.90;;
11731;SDS011;5922;53.734;10.258;2022-07-29T05:45:18;4.20;;;2.90;;
11731;SDS011;5922;53.734;10.258;2022-07-29T05:47:45;6.63;;;3.00;;
11731;SDS011;5922;53.734;10.258;2022-07-29T05:50:21;7.13;;;2.63;;
11731;SDS011;5922;53.734;10.258;2022-07-29T05:55:54;5.40;;;2.93;;
11731;SDS011;5922;53.734;10.258;2022-07-29T05:58:21;9.73;;;2.90;;
11731;SDS011;5922;53.734;10.258;2022-07-29T06:00:48;5.63;;;2.83;;
11731;SDS011;5922;53.734;10.258;2022-07-29T06:03:16;7.03;;;3.07;;
11731;SDS011;5922;53.734;10.258;2022-07-29T06:05:43;5.07;;;3.00;;
11731;SDS011;5922;53.734;10.258;2022-07-29T06:08:10;5.70;;;3.23;;
11731;SDS011;5922;53.734;10.258;2022-07-29T06:13:25;8.47;;;2.80;;
11731;SDS011;5922;53.734;10.258;2022-07-29T06:15:52;6.27;;;2.53;;
11731;SDS011;5922;53.734;10.258;2022-07-29T06:18:19;5.43;;;2.40;;
11731;SDS011;5922;53.734;10.258;2022-07-29T06:20:48;5.50;;;2.70;;
11731;SDS011;5922;53.734;10.258;2022-07-29T06:23:15;7.13;;;3.10;;
11731;SDS011;5922;53.734;10.258;2022-07-29T06:25:43;5.57;;;2.80;;
11731;SDS011;5922;53.734;10.258;2022-07-29T06:28:10;6.07;;;2.33;;
11731;SDS011;5922;53.734;10.258;2022-07-29T06:30:38;5.17;;;2.67;;
11731;SDS011;5922;53.734;10.258;2022-07-29T06:33:06;6.17;;;2.43;;
11731;SDS011;5922;53.734;10.258;2022-07-29T06:35:33;7.63;;;2.43;;
11731;SDS011;5922;53.734;10.258;2022-07-29T06:38:02;6.10;;;2.73;;
11731;SDS011;5922;53.734;10.258;2022-07-29T06:40:29;7.83;;;2.30;;
11731;SDS011;5922;53.734;10.258;2022-07-29T06:43:14;2.30;;;2.10;;
11731;SDS011;5922;53.734;10.258;2022-07-29T06:45:43;4.23;;;2.20;;
11731;SDS011;5922;53.734;10.258;2022-07-29T06:48:10;3.17;;;2.13;;
11731;SDS011;5922;53.734;10.258;2022-07-29T06:50:37;5.50;;;2.57;;
11731;SDS011;5922;53.734;10.258;2022-07-29T06:53:04;4.10;;;2.27;;
11731;SDS011;5922;53.734;10.258;2022-07-29T06:55:31;4.27;;;2.27;;
11731;SDS011;5922;53.734;10.258;2022-07-29T06:58:01;6.33;;;2.60;;
11731;SDS011;5922;53.734;10.258;2022-07-29T07:00:29;3.87;;;2.40;;
11731;SDS011;5922;53.734;10.258;2022-07-29T07:02:57;6.10;;;2.30;;
11731;SDS011;5922;53.734;10.258;2022-07-29T07:05:24;4.63;;;2.53;;
11731;SDS011;5922;53.734;10.258;2022-07-29T07:07:52;4.17;;;2.37;;
11731;SDS011;5922;53.734;10.258;2022-07-29T07:10:20;8.17;;;2.33;;
11731;SDS011;5922;53.734;10.258;2022-07-29T07:12:47;4.40;;;2.37;;
11731;SDS011;5922;53.734;10.258;2022-07-29T07:15:14;4.70;;;2.33;;
11731;SDS011;5922;53.734;10.258;2022-07-29T07:17:41;5.63;;;2.20;;
11731;SDS011;5922;53.734;10.258;2022-07-29T07:20:10;3.60;;;2.27;;
11731;SDS011;5922;53.734;10.258;2022-07-29T07:22:37;3.40;;;2.37;;
11731;SDS011;5922;53.734;10.258;2022-07-29T07:25:05;6.03;;;2.33;;
11731;SDS011;5922;53.734;10.258;2022-07-29T07:27:32;4.70;;;2.37;;
11731;SDS011;5922;53.734;10.258;2022-07-29T07:30:00;3.80;;;2.33;;
11731;SDS011;5922;53.734;10.258;2022-07-29T07:32:27;6.97;;;2.17;;
11731;SDS011;5922;53.734;10.258;2022-07-29T07:34:54;4.40;;;2.17;;
11731;SDS011;5922;53.734;10.258;2022-07-29T07:37:24;3.97;;;2.00;;
11731;SDS011;5922;53.734;10.258;2022-07-29T07:39:51;2.73;;;2.27;;
11731;SDS011;5922;53.734;10.258;2022-07-29T07:42:18;5.53;;;2.47;;
11731;SDS011;5922;53.734;10.258;2022-07-29T07:44:45;7.13;;;2.60;;
11731;SDS011;5922;53.734;10.258;2022-07-29T07:47:13;5.63;;;1.97;;
11731;SDS011;5922;53.734;10.258;2022-07-29T07:49:40;4.60;;;2.40;;
11731;SDS011;5922;53.734;10.258;2022-07-29T07:52:08;5.80;;;2.27;;
11731;SDS011;5922;53.734;10.258;2022-07-29T07:54:36;4.23;;;2.10;;
11731;SDS011;5922;53.734;10.258;2022-07-29T07:57:03;5.43;;;2.83;;
11731;SDS011;5922;53.734;10.258;2022-07-29T07:59:30;4.43;;;2.40;;
11731;SDS011;5922;53.734;10.258;2022-07-29T08:01:58;4.33;;;2.10;;
11731;SDS011;5922;53.734;10.258;2022-07-29T08:04:26;4.87;;;2.00;;
11731;SDS011;5922;53.734;10.258;2022-07-29T08:06:53;4.57;;;2.27;;
11731;SDS011;5922;53.734;10.258;2022-07-29T08:09:20;5.00;;;2.30;;
11731;SDS011;5922;53.734;10.258;2022-07-29T08:11:49;7.50;;;2.40;;
11731;SDS011;5922;53.734;10.258;2022-07-29T08:14:16;7.13;;;2.37;;
11731;SDS011;5922;53.734;10.258;2022-07-29T08:16:43;4.93;;;2.20;;
11731;SDS011;5922;53.734;10.258;2022-07-29T08:19:11;4.00;;;2.07;;
11731;SDS011;5922;53.734;10.258;2022-07-29T08:21:38;5.00;;;2.83;;
11731;SDS011;5922;53.734;10.258;2022-07-29T08:24:06;3.93;;;2.20;;
11731;SDS011;5922;53.734;10.258;2022-07-29T08:26:52;7.73;;;2.60;;
11731;SDS011;5922;53.734;10.258;2022-07-29T08:29:19;10.10;;;2.60;;
11731;SDS011;5922;53.734;10.258;2022-07-29T08:31:46;4.07;;;2.37;;
11731;SDS011;5922;53.734;10.258;2022-07-29T08:34:13;2.70;;;2.03;;
11731;SDS011;5922;53.734;10.258;2022-07-29T08:36:41;4.07;;;2.10;;
11731;SDS011;5922;53.734;10.258;2022-07-29T08:39:08;3.73;;;2.20;;
11731;SDS011;5922;53.734;10.258;2022-07-29T08:41:35;5.60;;;2.20;;
11731;SDS011;5922;53.734;10.258;2022-07-29T08:44:04;4.97;;;2.23;;
11731;SDS011;5922;53.734;10.258;2022-07-29T08:46:31;3.37;;;2.10;;
11731;SDS011;5922;53.734;10.258;2022-07-29T08:48:58;4.57;;;2.37;;
11731;SDS011;5922;53.734;10.258;2022-07-29T08:51:25;5.07;;;2.30;;
11731;SDS011;5922;53.734;10.258;2022-07-29T08:53:53;6.93;;;2.60;;
11731;SDS011;5922;53.734;10.258;2022-07-29T08:56:21;4.13;;;2.40;;
11731;SDS011;5922;53.734;10.258;2022-07-29T08:58:49;8.87;;;2.33;;
11731;SDS011;5922;53.734;10.258;2022-07-29T09:01:21;4.67;;;2.40;;
11731;SDS011;5922;53.734;10.258;2022-07-29T09:03:48;4.30;;;2.13;;
11731;SDS011;5922;53.734;10.258;2022-07-29T09:06:17;5.57;;;2.30;;
11731;SDS011;5922;53.734;10.258;2022-07-29T09:08:44;4.20;;;2.20;;
11731;SDS011;5922;53.734;10.258;2022-07-29T09:11:11;5.07;;;2.10;;
11731;SDS011;5922;53.734;10.258;2022-07-29T09:13:39;6.57;;;2.33;;
11731;SDS011;5922;53.734;10.258;2022-07-29T09:16:06;5.63;;;2.20;;
11731;SDS011;5922;53.734;10.258;2022-07-29T09:18:36;7.30;;;2.23;;
11731;SDS011;5922;53.734;10.258;2022-07-29T09:21:04;2.50;;;1.97;;
11731;SDS011;5922;53.734;10.258;2022-07-29T09:24:02;5.53;;;2.40;;
11731;SDS011;5922;53.734;10.258;2022-07-29T09:26:30;2.50;;;2.13;;
11731;SDS011;5922;53.734;10.258;2022-07-29T09:28:58;3.77;;;2.00;;
11731;SDS011;5922;53.734;10.258;2022-07-29T09:31:32;3.37;;;2.17;;
11731;SDS011;5922;53.734;10.258;2022-07-29T09:34:01;5.70;;;2.30;;
11731;SDS011;5922;53.734;10.258;2022-07-29T09:36:29;5.53;;;2.30;;
11731;SDS011;5922;53.734;10.258;2022-07-29T09:38:59;5.30;;;2.17;;
11731;SDS011;5922;53.734;10.258;2022-07-29T09:41:27;4.07;;;2.27;;
11731;SDS011;5922;53.734;10.258;2022-07-29T09:43:55;6.27;;;2.20;;
11731;SDS011;5922;53.734;10.258;2022-07-29T09:46:22;5.83;;;2.37;;
11731;SDS011;5922;53.734;10.258;2022-07-29T09:51:44;5.97;;;2.50;;
11731;SDS011;5922;53.734;10.258;2022-07-29T09:54:23;6.00;;;2.40;;
11731;SDS011;5922;53.734;10.258;2022-07-29T09:56:51;4.77;;;2.23;;
11731;SDS011;5922;53.734;10.258;2022-07-29T09:59:18;3.07;;;2.10;;
11731;SDS011;5922;53.734;10.258;2022-07-29T10:01:49;3.10;;;2.00;;
11731;SDS011;5922;53.734;10.258;2022-07-29T10:04:16;4.90;;;2.20;;
11731;SDS011;5922;53.734;10.258;2022-07-29T10:09:31;7.90;;;2.50;;
11731;SDS011;5922;53.734;10.258;2022-07-29T10:12:08;2.87;;;1.93;;
11731;SDS011;5922;53.734;10.258;2022-07-29T10:14:38;4.87;;;1.90;;
11731;SDS011;5922;53.734;10.258;2022-07-29T10:17:06;5.20;;;2.03;;
11731;SDS011;5922;53.734;10.258;2022-07-29T10:19:35;4.10;;;2.13;;
11731;SDS011;5922;53.734;10.258;2022-07-29T10:22:03;4.80;;;2.00;;
11731;SDS011;5922;53.734;10.258;2022-07-29T10:24:31;3.83;;;2.00;;
11731;SDS011;5922;53.734;10.258;2022-07-29T10:26:59;5.83;;;1.97;;
11731;SDS011;5922;53.734;10.258;2022-07-29T10:29:27;4.17;;;2.00;;
11731;SDS011;5922;53.734;10.258;2022-07-29T10:34:46;3.00;;;1.87;;
11731;SDS011;5922;53.734;10.258;2022-07-29T10:37:16;5.07;;;2.00;;
11731;SDS011;5922;53.734;10.258;2022-07-29T10:39:50;4.00;;;2.07;;
11731;SDS011;5922;53.734;10.258;2022-07-29T10:42:20;4.37;;;1.83;;
11731;SDS011;5922;53.734;10.258;2022-07-29T10:44:49;4.43;;;2.07;;
11731;SDS011;5922;53.734;10.258;2022-07-29T10:47:19;7.43;;;2.13;;
11731;SDS011;5922;53.734;10.258;2022-07-29T10:49:54;4.50;;;1.73;;
11731;SDS011;5922;53.734;10.258;2022-07-29T10:52:22;4.67;;;1.97;;
11731;SDS011;5922;53.734;10.258;2022-07-29T10:54:53;7.03;;;2.13;;
11731;SDS011;5922;53.734;10.258;2022-07-29T10:57:24;3.13;;;1.70;;
11731;SDS011;5922;53.734;10.258;2022-07-29T11:02:42;3.00;;;1.70;;
11731;SDS011;5922;53.734;10.258;2022-07-29T11:05:10;4.73;;;1.97;;
11731;SDS011;5922;53.734;10.258;2022-07-29T11:07:38;7.87;;;2.17;;
11731;SDS011;5922;53.734;10.258;2022-07-29T11:10:23;6.20;;;2.63;;
11731;SDS011;5922;53.734;10.258;2022-07-29T11:12:50;3.00;;;1.70;;
11731;SDS011;5922;53.734;10.258;2022-07-29T11:15:18;7.27;;;1.83;;
11731;SDS011;5922;53.734;10.258;2022-07-29T11:18:04;5.30;;;2.10;;
11731;SDS011;5922;53.734;10.258;2022-07-29T11:20:32;3.20;;;1.97;;
11731;SDS011;5922;53.734;10.258;2022-07-29T11:23:00;6.70;;;2.03;;
11731;SDS011;5922;53.734;10.258;2022-07-29T11:25:28;5.80;;;2.30;;
11731;SDS011;5922;53.734;10.258;2022-07-29T11:28:08;3.70;;;2.37;;
11731;SDS011;5922;53.734;10.258;2022-07-29T11:30:46;5.57;;;2.30;;
11731;SDS011;5922;53.734;10.258;2022-07-29T11:33:26;9.10;;;2.20;;
11731;SDS011;5922;53.734;10.258;2022-07-29T11:36:09;3.47;;;2.43;;
11731;SDS011;5922;53.734;10.258;2022-07-29T11:38:37;5.83;;;2.40;;
11731;SDS011;5922;53.734;10.258;2022-07-29T11:47:22;5.00;;;2.50;;
11731;SDS011;5922;53.734;10.258;2022-07-29T11:52:49;5.47;;;2.43;;
11731;SDS011;5922;53.734;10.258;2022-07-29T11:55:17;5.07;;;2.53;;
11731;SDS011;5922;53.734;10.258;2022-07-29T12:00:45;3.97;;;2.30;;
11731;SDS011;5922;53.734;10.258;2022-07-29T12:03:23;5.33;;;2.40;;
11731;SDS011;5922;53.734;10.258;2022-07-29T12:05:50;5.20;;;1.93;;
11731;SDS011;5922;53.734;10.258;2022-07-29T12:08:21;4.67;;;2.10;;
11731;SDS011;5922;53.734;10.258;2022-07-29T12:10:51;6.53;;;2.30;;
11731;SDS011;5922;53.734;10.258;2022-07-29T12:13:19;5.33;;;2.23;;
11731;SDS011;5922;53.734;10.258;2022-07-29T12:15:52;4.60;;;2.23;;
11731;SDS011;5922;53.734;10.258;2022-07-29T12:18:24;3.03;;;2.00;;
11731;SDS011;5922;53.734;10.258;2022-07-29T12:20:56;2.60;;;2.10;;
11731;SDS011;5922;53.734;10.258;2022-07-29T12:23:23;13.03;;;2.40;;
11731;SDS011;5922;53.734;10.258;2022-07-29T12:25:50;5.03;;;2.60;;
11731;SDS011;5922;53.734;10.258;2022-07-29T12:28:18;5.40;;;2.47;;
11731;SDS011;5922;53.734;10.258;2022-07-29T12:30:47;3.83;;;2.27;;
11731;SDS011;5922;53.734;10.258;2022-07-29T12:33:16;5.53;;;2.40;;
11731;SDS011;5922;53.734;10.258;2022-07-29T12:35:57;5.17;;;2.57;;
11731;SDS011;5922;53.734;10.258;2022-07-29T12:38:32;7.17;;;2.60;;
11731;SDS011;5922;53.734;10.258;2022-07-29T12:41:00;9.20;;;2.53;;
11731;SDS011;5922;53.734;10.258;2022-07-29T12:43:28;5.10;;;2.33;;
11731;SDS011;5922;53.734;10.258;2022-07-29T12:45:55;7.20;;;2.60;;
11731;SDS011;5922;53.734;10.258;2022-07-29T12:48:33;4.93;;;2.20;;
11731;SDS011;5922;53.734;10.258;2022-07-29T12:51:02;3.73;;;2.40;;
11731;SDS011;5922;53.734;10.258;2022-07-29T12:53:30;5.50;;;2.10;;
11731;SDS011;5922;53.734;10.258;2022-07-29T12:55:57;6.03;;;2.47;;
11731;SDS011;5922;53.734;10.258;2022-07-29T12:58:27;3.40;;;2.20;;
11731;SDS011;5922;53.734;10.258;2022-07-29T13:01:01;6.27;;;2.33;;
11731;SDS011;5922;53.734;10.258;2022-07-29T13:03:28;4.83;;;2.37;;
11731;SDS011;5922;53.734;10.258;2022-07-29T13:05:56;4.80;;;2.27;;
11731;SDS011;5922;53.734;10.258;2022-07-29T13:08:24;4.73;;;2.33;;
11731;SDS011;5922;53.734;10.258;2022-07-29T13:10:53;5.50;;;2.30;;
11731;SDS011;5922;53.734;10.258;2022-07-29T13:13:20;6.93;;;2.33;;
11731;SDS011;5922;53.734;10.258;2022-07-29T13:15:53;8.27;;;2.70;;
11731;SDS011;5922;53.734;10.258;2022-07-29T13:18:33;9.00;;;2.40;;
11731;SDS011;5922;53.734;10.258;2022-07-29T13:21:09;5.73;;;2.67;;
11731;SDS011;5922;53.734;10.258;2022-07-29T13:23:38;5.97;;;2.40;;
11731;SDS011;5922;53.734;10.258;2022-07-29T13:26:05;6.13;;;2.53;;
11731;SDS011;5922;53.734;10.258;2022-07-29T13:28:32;5.57;;;2.57;;
11731;SDS011;5922;53.734;10.258;2022-07-29T13:31:00;3.23;;;2.43;;
11731;SDS011;5922;53.734;10.258;2022-07-29T13:33:27;6.10;;;2.63;;
11731;SDS011;5922;53.734;10.258;2022-07-29T13:35:55;3.23;;;2.13;;
11731;SDS011;5922;53.734;10.258;2022-07-29T13:38:22;5.03;;;2.50;;
11731;SDS011;5922;53.734;10.258;2022-07-29T13:40:50;9.43;;;2.47;;
11731;SDS011;5922;53.734;10.258;2022-07-29T13:43:17;3.97;;;2.20;;
11731;SDS011;5922;53.734;10.258;2022-07-29T13:45:45;5.97;;;2.23;;
11731;SDS011;5922;53.734;10.258;2022-07-29T13:48:12;3.93;;;2.23;;
11731;SDS011;5922;53.734;10.258;2022-07-29T13:50:46;7.17;;;2.53;;
11731;SDS011;5922;53.734;10.258;2022-07-29T13:53:13;3.57;;;2.13;;
11731;SDS011;5922;53.734;10.258;2022-07-29T13:55:41;4.97;;;2.07;;
11731;SDS011;5922;53.734;10.258;2022-07-29T13:58:10;3.93;;;2.17;;
11731;SDS011;5922;53.734;10.258;2022-07-29T14:00:37;4.23;;;2.37;;
11731;SDS011;5922;53.734;10.258;2022-07-29T14:03:04;5.50;;;2.50;;
11731;SDS011;5922;53.734;10.258;2022-07-29T14:05:31;6.97;;;3.47;;
11731;SDS011;5922;53.734;10.258;2022-07-29T14:07:59;5.67;;;2.93;;
11731;SDS011;5922;53.734;10.258;2022-07-29T14:10:26;5.60;;;3.20;;
11731;SDS011;5922;53.734;10.258;2022-07-29T14:12:53;3.97;;;2.10;;
11731;SDS011;5922;53.734;10.258;2022-07-29T14:15:21;4.27;;;2.27;;
11731;SDS011;5922;53.734;10.258;2022-07-29T14:17:49;5.60;;;2.07;;
11731;SDS011;5922;53.734;10.258;2022-07-29T14:20:16;4.43;;;2.30;;
11731;SDS011;5922;53.734;10.258;2022-07-29T14:22:43;5.00;;;2.70;;
11731;SDS011;5922;53.734;10.258;2022-07-29T14:25:10;5.63;;;2.40;;
11731;SDS011;5922;53.734;10.258;2022-07-29T14:27:38;5.17;;;2.40;;
11731;SDS011;5922;53.734;10.258;2022-07-29T14:30:05;7.03;;;2.33;;
11731;SDS011;5922;53.734;10.258;2022-07-29T14:32:34;7.00;;;3.10;;
11731;SDS011;5922;53.734;10.258;2022-07-29T14:35:01;5.17;;;2.87;;
11731;SDS011;5922;53.734;10.258;2022-07-29T14:37:28;5.90;;;2.70;;
11731;SDS011;5922;53.734;10.258;2022-07-29T14:39:55;5.63;;;2.60;;
11731;SDS011;5922;53.734;10.258;2022-07-29T14:42:24;4.47;;;2.60;;
11731;SDS011;5922;53.734;10.258;2022-07-29T14:44:51;7.03;;;2.90;;
11731;SDS011;5922;53.734;10.258;2022-07-29T14:47:21;3.57;;;2.30;;
11731;SDS011;5922;53.734;10.258;2022-07-29T14:49:49;4.87;;;2.30;;
11731;SDS011;5922;53.734;10.258;2022-07-29T14:55:20;9.27;;;2.50;;
11731;SDS011;5922;53.734;10.258;2022-07-29T14:57:47;4.17;;;2.33;;
11731;SDS011;5922;53.734;10.258;2022-07-29T15:00:16;4.17;;;2.20;;
11731;SDS011;5922;53.734;10.258;2022-07-29T15:02:43;10.10;;;2.47;;
11731;SDS011;5922;53.734;10.258;2022-07-29T15:05:15;6.07;;;2.33;;
11731;SDS011;5922;53.734;10.258;2022-07-29T15:07:46;5.37;;;2.50;;
11731;SDS011;5922;53.734;10.258;2022-07-29T15:10:13;5.43;;;2.53;;
11731;SDS011;5922;53.734;10.258;2022-07-29T15:12:40;8.17;;;2.50;;
11731;SDS011;5922;53.734;10.258;2022-07-29T15:15:07;9.70;;;2.50;;
11731;SDS011;5922;53.734;10.258;2022-07-29T15:17:35;8.83;;;2.70;;
11731;SDS011;5922;53.734;10.258;2022-07-29T15:20:02;8.80;;;2.80;;
11731;SDS011;5922;53.734;10.258;2022-07-29T15:22:31;7.97;;;2.53;;
11731;SDS011;5922;53.734;10.258;2022-07-29T15:25:05;9.87;;;2.80;;
11731;SDS011;5922;53.734;10.258;2022-07-29T15:27:32;6.63;;;2.20;;
11731;SDS011;5922;53.734;10.258;2022-07-29T15:29:59;7.03;;;2.63;;
11731;SDS011;5922;53.734;10.258;2022-07-29T15:32:26;6.20;;;2.60;;
11731;SDS011;5922;53.734;10.258;2022-07-29T15:34:54;7.87;;;2.17;;
11731;SDS011;5922;53.734;10.258;2022-07-29T15:37:21;7.73;;;2.17;;
11731;SDS011;5922;53.734;10.258;2022-07-29T15:39:58;7.03;;;2.40;;
11731;SDS011;5922;53.734;10.258;2022-07-29T15:42:25;5.73;;;2.50;;
11731;SDS011;5922;53.734;10.258;2022-07-29T15:44:52;7.77;;;2.40;;
11731;SDS011;5922;53.734;10.258;2022-07-29T15:47:20;4.13;;;2.33;;
11731;SDS011;5922;53.734;10.258;2022-07-29T15:49:48;43.17;;;3.97;;
11731;SDS011;5922;53.734;10.258;2022-07-29T15:52:16;4.67;;;2.40;;
11731;SDS011;5922;53.734;10.258;2022-07-29T15:54:44;8.47;;;2.70;;
11731;SDS011;5922;53.734;10.258;2022-07-29T15:57:12;5.53;;;2.30;;